sensor_id;sensor_type;location;lat;lon;timestamp;pressure;altitude;pressure_sealevel;temperature;humidity
19086;BME280;9675;51.538;6.728;2023-09-19T00:00:34;100429.84;;;19.47;100.00
19086;BME280;9675;51.538;6.728;2023-09-19T00:03:02;100428.09;;;19.47;100.00
19086;BME280;9675;51.538;6.728;2023-09-19T00:05:35;100434.97;;;19.44;100.00
19086;BME280;9675;51.538;6.728;2023-09-19T00:08:05;100438.44;;;19.40;100.00
19086;BME280;9675;51.538;6.728;2023-09-19T00:10:33;100441.03;;;19.37;100.00
19086;BME280;9675;51.538;6.728;2023-09-19T00:13:02;100448.84;;;19.35;100.00
19086;BME280;9675;51.538;6.728;2023-09-19T00:15:37;100441.91;;;19.36;100.00
19086;BME280;9675;51.538;6.728;2023-09-19T00:18:04;100441.84;;;19.33;100.00
19086;BME280;9675;51.538;6.728;2023-09-19T00:20:36;100445.34;;;19.32;100.00
19086;BME280;9675;51.538;6.728;2023-09-19T00:23:03;100450.53;;;19.29;100.00
19086;BME280;9675;51.538;6.728;2023-09-19T00:25:34;100447.91;;;19.26;100.00
19086;BME280;9675;51.538;6.728;2023-09-19T00:28:03;100454.00;;;19.25;100.00
19086;BME280;9675;51.538;6.728;2023-09-19T00:30:32;100453.97;;;19.22;100.00
19086;BME280;9675;51.538;6.728;2023-09-19T00:32:59;100448.72;;;19.19;100.00
19086;BME280;9675;51.538;6.728;2023-09-19T00:35:28;100453.94;;;19.16;100.00
19086;BME280;9675;51.538;6.728;2023-09-19T00:37:57;100458.25;;;19.14;100.00
19086;BME280;9675;51.538;6.728;2023-09-19T00:40:25;100459.97;;;19.10;100.00
19086;BME280;9675;51.538;6.728;2023-09-19T00:42:57;100457.31;;;19.08;100.00
19086;BME280;9675;51.538;6.728;2023-09-19T00:45:25;100463.41;;;19.06;100.00
19086;BME280;9675;51.538;6.728;2023-09-19T00:47:54;100463.41;;;19.04;100.00
19086;BME280;9675;51.538;6.728;2023-09-19T00:50:25;100465.09;;;19.02;100.00
19086;BME280;9675;51.538;6.728;2023-09-19T00:52:55;100465.94;;;18.95;100.00
19086;BME280;9675;51.538;6.728;2023-09-19T00:55:25;100475.47;;;18.95;100.00
19086;BME280;9675;51.538;6.728;2023-09-19T00:57:56;100483.31;;;18.96;100.00
19086;BME280;9675;51.538;6.728;2023-09-19T01:00:24;100490.25;;;18.94;100.00
19086;BME280;9675;51.538;6.728;2023-09-19T01:02:52;100491.09;;;18.92;100.00
19086;BME280;9675;51.538;6.728;2023-09-19T01:05:19;100490.19;;;18.88;100.00
19086;BME280;9675;51.538;6.728;2023-09-19T01:07:46;100496.25;;;18.84;100.00
19086;BME280;9675;51.538;6.728;2023-09-19T01:10:17;100490.13;;;18.82;100.00
19086;BME280;9675;51.538;6.728;2023-09-19T01:12:55;100497.94;;;18.79;100.00
19086;BME280;9675;51.538;6.728;2023-09-19T01:15:40;100493.56;;;18.75;100.00
19086;BME280;9675;51.538;6.728;2023-09-19T01:18:28;100497.00;;;18.74;100.00
19086;BME280;9675;51.538;6.728;2023-09-19T01:21:07;100501.28;;;18.71;100.00
19086;BME280;9675;51.538;6.728;2023-09-19T01:24:09;100496.94;;;18.68;100.00
19086;BME280;9675;51.538;6.728;2023-09-19T01:27:11;100509.06;;;18.66;100.00
19086;BME280;9675;51.538;6.728;2023-09-19T01:29:48;100506.44;;;18.63;100.00
19086;BME280;9675;51.538;6.728;2023-09-19T01:32:19;100519.47;;;18.61;100.00
19086;BME280;9675;51.538;6.728;2023-09-19T01:34:49;100515.09;;;18.60;100.00
19086;BME280;9675;51.538;6.728;2023-09-19T01:37:21;100518.56;;;18.58;100.00
19086;BME280;9675;51.538;6.728;2023-09-19T01:39:55;100519.38;;;18.54;100.00
19086;BME280;9675;51.538;6.728;2023-09-19T01:42:35;100526.31;;;18.55;100.00
19086;BME280;9675;51.538;6.728;2023-09-19T01:45:12;100523.66;;;18.52;100.00
19086;BME280;9675;51.538;6.728;2023-09-19T01:47:50;100528.84;;;18.49;100.00
19086;BME280;9675;51.538;6.728;2023-09-19T01:50:29;100523.63;;;18.49;100.00
19086;BME280;9675;51.538;6.728;2023-09-19T01:53:05;100523.59;;;18.47;100.00
19086;BME280;9675;51.538;6.728;2023-09-19T01:55:41;100523.59;;;18.44;100.00
19086;BME280;9675;51.538;6.728;2023-09-19T01:58:19;100533.13;;;18.44;100.00
19086;BME280;9675;51.538;6.728;2023-09-19T02:00:49;100532.22;;;18.42;100.00
19086;BME280;9675;51.538;6.728;2023-09-19T02:03:21;100537.41;;;18.40;100.00
19086;BME280;9675;51.538;6.728;2023-09-19T02:05:50;100532.16;;;18.37;100.00
19086;BME280;9675;51.538;6.728;2023-09-19T02:08:22;100533.88;;;18.34;100.00
19086;BME280;9675;51.538;6.728;2023-09-19T02:10:49;100539.88;;;18.30;100.00
19086;BME280;9675;51.538;6.728;2023-09-19T02:13:17;100545.94;;;18.27;100.00
19086;BME280;9675;51.538;6.728;2023-09-19T02:15:45;100546.75;;;18.24;100.00
19086;BME280;9675;51.538;6.728;2023-09-19T02:18:13;100544.13;;;18.21;100.00
19086;BME280;9675;51.538;6.728;2023-09-19T02:20:41;100555.41;;;18.20;100.00
19086;BME280;9675;51.538;6.728;2023-09-19T02:23:09;100544.97;;;18.20;100.00
19086;BME280;9675;51.538;6.728;2023-09-19T02:25:36;100558.00;;;18.20;100.00
19086;BME280;9675;51.538;6.728;2023-09-19T02:28:04;100555.38;;;18.19;100.00
19086;BME280;9675;51.538;6.728;2023-09-19T02:30:32;100550.09;;;18.14;100.00
19086;BME280;9675;51.538;6.728;2023-09-19T02:32:59;100554.38;;;18.09;100.00
19086;BME280;9675;51.538;6.728;2023-09-19T02:35:28;100553.41;;;18.03;100.00
19086;BME280;9675;51.538;6.728;2023-09-19T02:38:00;100562.06;;;18.00;100.00
19086;BME280;9675;51.538;6.728;2023-09-19T02:40:28;100559.41;;;17.99;100.00
19086;BME280;9675;51.538;6.728;2023-09-19T02:42:56;100564.66;;;18.00;100.00
19086;BME280;9675;51.538;6.728;2023-09-19T02:45:25;100562.97;;;18.02;100.00
19086;BME280;9675;51.538;6.728;2023-09-19T02:47:52;100562.88;;;17.96;100.00
19086;BME280;9675;51.538;6.728;2023-09-19T02:50:21;100568.91;;;17.92;100.00
19086;BME280;9675;51.538;6.728;2023-09-19T02:52:48;100562.75;;;17.87;100.00
19086;BME280;9675;51.538;6.728;2023-09-19T02:55:20;100572.28;;;17.87;100.00
19086;BME280;9675;51.538;6.728;2023-09-19T02:57:48;100570.53;;;17.86;100.00
19086;BME280;9675;51.538;6.728;2023-09-19T03:00:17;100579.16;;;17.83;100.00
19086;BME280;9675;51.538;6.728;2023-09-19T03:02:47;100577.41;;;17.82;100.00
19086;BME280;9675;51.538;6.728;2023-09-19T03:05:14;100581.75;;;17.83;100.00
19086;BME280;9675;51.538;6.728;2023-09-19T03:07:42;100582.63;;;17.82;100.00
19086;BME280;9675;51.538;6.728;2023-09-19T03:10:11;100575.66;;;17.81;100.00
19086;BME280;9675;51.538;6.728;2023-09-19T03:12:40;100580.84;;;17.79;100.00
19086;BME280;9675;51.538;6.728;2023-09-19T03:15:08;100584.28;;;17.77;100.00
19086;BME280;9675;51.538;6.728;2023-09-19T03:17:35;100575.59;;;17.78;100.00
19086;BME280;9675;51.538;6.728;2023-09-19T03:20:04;100575.59;;;17.78;100.00
19086;BME280;9675;51.538;6.728;2023-09-19T03:22:34;100588.56;;;17.75;100.00
19086;BME280;9675;51.538;6.728;2023-09-19T03:25:01;100589.50;;;17.77;100.00
19086;BME280;9675;51.538;6.728;2023-09-19T03:27:29;100592.06;;;17.75;100.00
19086;BME280;9675;51.538;6.728;2023-09-19T03:30:00;100599.84;;;17.74;100.00
19086;BME280;9675;51.538;6.728;2023-09-19T03:32:31;100595.44;;;17.70;100.00
19086;BME280;9675;51.538;6.728;2023-09-19T03:34:58;100597.13;;;17.68;100.00
19086;BME280;9675;51.538;6.728;2023-09-19T03:37:26;100592.75;;;17.65;100.00
19086;BME280;9675;51.538;6.728;2023-09-19T03:39:53;100600.56;;;17.65;100.00
19086;BME280;9675;51.538;6.728;2023-09-19T03:42:20;100593.56;;;17.61;100.00
19086;BME280;9675;51.538;6.728;2023-09-19T03:44:51;100594.31;;;17.57;99.62
19086;BME280;9675;51.538;6.728;2023-09-19T03:47:22;100589.06;;;17.54;100.00
19086;BME280;9675;51.538;6.728;2023-09-19T03:49:49;100588.16;;;17.52;100.00
19086;BME280;9675;51.538;6.728;2023-09-19T03:52:16;100592.44;;;17.49;100.00
19086;BME280;9675;51.538;6.728;2023-09-19T03:54:43;100587.22;;;17.49;100.00
19086;BME280;9675;51.538;6.728;2023-09-19T03:57:10;100588.94;;;17.48;100.00
19086;BME280;9675;51.538;6.728;2023-09-19T03:59:41;100581.13;;;17.48;99.57
19086;BME280;9675;51.538;6.728;2023-09-19T04:02:08;100585.47;;;17.48;100.00
19086;BME280;9675;51.538;6.728;2023-09-19T04:04:40;100584.59;;;17.47;99.20
19086;BME280;9675;51.538;6.728;2023-09-19T04:07:07;100588.88;;;17.43;99.61
19086;BME280;9675;51.538;6.728;2023-09-19T04:09:34;100588.84;;;17.40;99.90
19086;BME280;9675;51.538;6.728;2023-09-19T04:12:01;100589.59;;;17.36;100.00
19086;BME280;9675;51.538;6.728;2023-09-19T04:14:29;100599.06;;;17.31;100.00
19086;BME280;9675;51.538;6.728;2023-09-19T04:16:56;100588.59;;;17.28;100.00
19086;BME280;9675;51.538;6.728;2023-09-19T04:19:23;100595.44;;;17.23;100.00
19086;BME280;9675;51.538;6.728;2023-09-19T04:21:51;100594.53;;;17.20;100.00
19086;BME280;9675;51.538;6.728;2023-09-19T04:24:18;100593.63;;;17.19;100.00
19086;BME280;9675;51.538;6.728;2023-09-19T04:26:46;100599.69;;;17.18;100.00
19086;BME280;9675;51.538;6.728;2023-09-19T04:29:13;100597.97;;;17.19;100.00
19086;BME280;9675;51.538;6.728;2023-09-19T04:31:41;100596.16;;;17.16;100.00
19086;BME280;9675;51.538;6.728;2023-09-19T04:34:09;100595.19;;;17.11;100.00
19086;BME280;9675;51.538;6.728;2023-09-19T04:36:43;100591.72;;;17.11;100.00
19086;BME280;9675;51.538;6.728;2023-09-19T04:39:12;100597.81;;;17.10;100.00
19086;BME280;9675;51.538;6.728;2023-09-19T04:41:39;100596.03;;;17.10;100.00
19086;BME280;9675;51.538;6.728;2023-09-19T04:44:07;100603.75;;;17.06;100.00
19086;BME280;9675;51.538;6.728;2023-09-19T04:46:34;100600.25;;;17.02;100.00
19086;BME280;9675;51.538;6.728;2023-09-19T04:49:02;100602.00;;;17.03;100.00
19086;BME280;9675;51.538;6.728;2023-09-19T04:51:29;100603.69;;;17.01;100.00
19086;BME280;9675;51.538;6.728;2023-09-19T04:54:00;100595.84;;;16.99;100.00
19086;BME280;9675;51.538;6.728;2023-09-19T04:56:28;100603.69;;;17.01;100.00
19086;BME280;9675;51.538;6.728;2023-09-19T04:58:55;100612.28;;;16.97;100.00
19086;BME280;9675;51.538;6.728;2023-09-19T05:01:22;100618.31;;;16.96;100.00
19086;BME280;9675;51.538;6.728;2023-09-19T05:03:49;100628.72;;;16.96;100.00
19086;BME280;9675;51.538;6.728;2023-09-19T05:06:18;100627.88;;;16.97;100.00
19086;BME280;9675;51.538;6.728;2023-09-19T05:08:46;100633.13;;;17.00;100.00
19086;BME280;9675;51.538;6.728;2023-09-19T05:11:15;100650.50;;;17.01;100.00
19086;BME280;9675;51.538;6.728;2023-09-19T05:13:43;100651.31;;;16.97;100.00
19086;BME280;9675;51.538;6.728;2023-09-19T05:16:10;100664.31;;;16.97;100.00
19086;BME280;9675;51.538;6.728;2023-09-19T05:18:38;100659.97;;;16.97;100.00
19086;BME280;9675;51.538;6.728;2023-09-19T05:21:05;100653.81;;;16.92;100.00
19086;BME280;9675;51.538;6.728;2023-09-19T05:23:33;100653.75;;;16.91;100.00
19086;BME280;9675;51.538;6.728;2023-09-19T05:26:00;100666.69;;;16.86;100.00
19086;BME280;9675;51.538;6.728;2023-09-19T05:28:27;100667.50;;;16.84;100.00
19086;BME280;9675;51.538;6.728;2023-09-19T05:30:56;100670.06;;;16.82;100.00
19086;BME280;9675;51.538;6.728;2023-09-19T05:33:24;100677.81;;;16.81;100.00
19086;BME280;9675;51.538;6.728;2023-09-19T05:35:52;100691.66;;;16.80;100.00
19086;BME280;9675;51.538;6.728;2023-09-19T05:38:19;100680.38;;;16.79;100.00
19086;BME280;9675;51.538;6.728;2023-09-19T05:40:46;100684.78;;;16.82;100.00
19086;BME280;9675;51.538;6.728;2023-09-19T05:43:14;100681.25;;;16.78;100.00
19086;BME280;9675;51.538;6.728;2023-09-19T05:45:41;100690.78;;;16.79;100.00
19086;BME280;9675;51.538;6.728;2023-09-19T05:48:12;100689.09;;;16.81;100.00
19086;BME280;9675;51.538;6.728;2023-09-19T05:50:42;100680.38;;;16.79;100.00
19086;BME280;9675;51.538;6.728;2023-09-19T05:53:09;100686.47;;;16.80;100.00
19086;BME280;9675;51.538;6.728;2023-09-19T05:55:40;100677.81;;;16.81;100.00
19086;BME280;9675;51.538;6.728;2023-09-19T05:58:07;100692.56;;;16.80;100.00
19086;BME280;9675;51.538;6.728;2023-09-19T06:00:36;100687.34;;;16.80;100.00
19086;BME280;9675;51.538;6.728;2023-09-19T06:03:03;100672.63;;;16.81;100.00
19086;BME280;9675;51.538;6.728;2023-09-19T06:05:32;100678.66;;;16.78;100.00
19086;BME280;9675;51.538;6.728;2023-09-19T06:07:59;100678.66;;;16.78;100.00
19086;BME280;9675;51.538;6.728;2023-09-19T06:10:27;100678.63;;;16.77;100.00
19086;BME280;9675;51.538;6.728;2023-09-19T06:12:55;100694.25;;;16.78;100.00
19086;BME280;9675;51.538;6.728;2023-09-19T06:15:23;100682.88;;;16.75;100.00
19086;BME280;9675;51.538;6.728;2023-09-19T06:17:54;100681.13;;;16.74;100.00
19086;BME280;9675;51.538;6.728;2023-09-19T06:20:22;100689.84;;;16.76;100.00
19086;BME280;9675;51.538;6.728;2023-09-19T06:22:53;100678.56;;;16.75;100.00
19086;BME280;9675;51.538;6.728;2023-09-19T06:25:21;100685.47;;;16.73;100.00
19086;BME280;9675;51.538;6.728;2023-09-19T06:27:49;100671.59;;;16.73;100.00
19086;BME280;9675;51.538;6.728;2023-09-19T06:30:18;100675.88;;;16.71;100.00
19086;BME280;9675;51.538;6.728;2023-09-19T06:32:45;100684.50;;;16.70;100.00
19086;BME280;9675;51.538;6.728;2023-09-19T06:35:14;100677.63;;;16.72;100.00
19086;BME280;9675;51.538;6.728;2023-09-19T06:37:43;100686.31;;;16.74;100.00
19086;BME280;9675;51.538;6.728;2023-09-19T06:40:14;100688.06;;;16.73;100.00
19086;BME280;9675;51.538;6.728;2023-09-19T06:42:42;100684.59;;;16.73;100.00
19086;BME280;9675;51.538;6.728;2023-09-19T06:45:10;100688.09;;;16.75;100.00
19086;BME280;9675;51.538;6.728;2023-09-19T06:47:39;100696.78;;;16.75;100.00
19086;BME280;9675;51.538;6.728;2023-09-19T06:50:06;100701.97;;;16.75;100.00
19086;BME280;9675;51.538;6.728;2023-09-19T06:52:39;100708.94;;;16.76;100.00
19086;BME280;9675;51.538;6.728;2023-09-19T06:55:06;100701.19;;;16.78;100.00
19086;BME280;9675;51.538;6.728;2023-09-19T06:57:36;100707.25;;;16.78;100.00
19086;BME280;9675;51.538;6.728;2023-09-19T07:00:04;100712.41;;;16.77;100.00
19086;BME280;9675;51.538;6.728;2023-09-19T07:02:35;100698.59;;;16.78;100.00
19086;BME280;9675;51.538;6.728;2023-09-19T07:05:02;100704.66;;;16.80;100.00
19086;BME280;9675;51.538;6.728;2023-09-19T07:07:29;100710.75;;;16.80;100.00
19086;BME280;9675;51.538;6.728;2023-09-19T07:09:56;100708.13;;;16.79;100.00
19086;BME280;9675;51.538;6.728;2023-09-19T07:12:23;100709.00;;;16.79;100.00
19086;BME280;9675;51.538;6.728;2023-09-19T07:14:51;100715.13;;;16.81;100.00
19086;BME280;9675;51.538;6.728;2023-09-19T07:17:18;100716.88;;;16.82;100.00
19086;BME280;9675;51.538;6.728;2023-09-19T07:19:47;100725.56;;;16.84;100.00
19086;BME280;9675;51.538;6.728;2023-09-19T07:22:14;100719.53;;;16.84;100.00
19086;BME280;9675;51.538;6.728;2023-09-19T07:24:41;100714.31;;;16.84;100.00
19086;BME280;9675;51.538;6.728;2023-09-19T07:27:08;100734.25;;;16.85;100.00
19086;BME280;9675;51.538;6.728;2023-09-19T07:29:35;100720.41;;;16.86;100.00
19086;BME280;9675;51.538;6.728;2023-09-19T07:32:05;100722.13;;;16.85;100.00
19086;BME280;9675;51.538;6.728;2023-09-19T07:34:33;100724.72;;;16.84;100.00
19086;BME280;9675;51.538;6.728;2023-09-19T07:37:00;100728.22;;;16.86;100.00
19086;BME280;9675;51.538;6.728;2023-09-19T07:39:28;100729.97;;;16.87;100.00
19086;BME280;9675;51.538;6.728;2023-09-19T07:41:55;100721.34;;;16.88;100.00
19086;BME280;9675;51.538;6.728;2023-09-19T07:44:22;100735.25;;;16.90;100.00
19086;BME280;9675;51.538;6.728;2023-09-19T07:46:51;100726.59;;;16.91;100.00
19086;BME280;9675;51.538;6.728;2023-09-19T07:49:20;100731.88;;;16.94;100.00
19086;BME280;9675;51.538;6.728;2023-09-19T07:51:47;100731.00;;;16.95;100.00
19086;BME280;9675;51.538;6.728;2023-09-19T07:54:14;100741.50;;;16.99;100.00
19086;BME280;9675;51.538;6.728;2023-09-19T07:56:42;100740.72;;;17.02;100.00
19086;BME280;9675;51.538;6.728;2023-09-19T07:59:11;100740.72;;;17.02;100.00
19086;BME280;9675;51.538;6.728;2023-09-19T08:01:39;100739.91;;;17.05;100.00
19086;BME280;9675;51.538;6.728;2023-09-19T08:04:07;100749.50;;;17.07;100.00
19086;BME280;9675;51.538;6.728;2023-09-19T08:06:35;100733.94;;;17.09;100.00
19086;BME280;9675;51.538;6.728;2023-09-19T08:09:04;100740.06;;;17.12;100.00
19086;BME280;9675;51.538;6.728;2023-09-19T08:11:36;100744.47;;;17.15;100.00
19086;BME280;9675;51.538;6.728;2023-09-19T08:14:03;100751.41;;;17.16;100.00
19086;BME280;9675;51.538;6.728;2023-09-19T08:16:31;100750.66;;;17.20;100.00
19086;BME280;9675;51.538;6.728;2023-09-19T08:18:58;100744.59;;;17.21;100.00
19086;BME280;9675;51.538;6.728;2023-09-19T08:21:25;100748.16;;;17.24;100.00
19086;BME280;9675;51.538;6.728;2023-09-19T08:23:56;100751.72;;;17.29;100.00
19086;BME280;9675;51.538;6.728;2023-09-19T08:26:23;100749.19;;;17.32;100.00
19086;BME280;9675;51.538;6.728;2023-09-19T08:28:51;100744.88;;;17.34;100.00
19086;BME280;9675;51.538;6.728;2023-09-19T08:31:18;100751.88;;;17.37;100.00
19086;BME280;9675;51.538;6.728;2023-09-19T08:33:46;100765.84;;;17.40;100.00
19086;BME280;9675;51.538;6.728;2023-09-19T08:36:15;100754.56;;;17.41;100.00
19086;BME280;9675;51.538;6.728;2023-09-19T08:38:42;100759.00;;;17.46;100.00
19086;BME280;9675;51.538;6.728;2023-09-19T08:41:10;100757.38;;;17.51;100.00
19086;BME280;9675;51.538;6.728;2023-09-19T08:43:38;100763.50;;;17.54;100.00
19086;BME280;9675;51.538;6.728;2023-09-19T08:46:11;100762.72;;;17.58;100.00
19086;BME280;9675;51.538;6.728;2023-09-19T08:48:46;100768.13;;;17.66;100.00
19086;BME280;9675;51.538;6.728;2023-09-19T08:51:23;100770.78;;;17.69;100.00
19086;BME280;9675;51.538;6.728;2023-09-19T08:54:03;100774.31;;;17.72;100.00
19086;BME280;9675;51.538;6.728;2023-09-19T08:56:34;100767.47;;;17.77;100.00
19086;BME280;9675;51.538;6.728;2023-09-19T08:59:03;100761.50;;;17.81;100.00
19086;BME280;9675;51.538;6.728;2023-09-19T09:01:33;100759.81;;;17.85;100.00
19086;BME280;9675;51.538;6.728;2023-09-19T09:04:02;100762.53;;;17.91;100.00
19086;BME280;9675;51.538;6.728;2023-09-19T09:06:31;100763.50;;;17.96;100.00
19086;BME280;9675;51.538;6.728;2023-09-19T09:08:59;100754.03;;;18.01;100.00
19086;BME280;9675;51.538;6.728;2023-09-19T09:11:27;100749.78;;;18.06;100.00
19086;BME280;9675;51.538;6.728;2023-09-19T09:13:55;100753.34;;;18.11;100.00
19086;BME280;9675;51.538;6.728;2023-09-19T09:16:23;100743.03;;;18.17;100.00
19086;BME280;9675;51.538;6.728;2023-09-19T09:18:52;100737.94;;;18.23;100.00
19086;BME280;9675;51.538;6.728;2023-09-19T09:21:20;100760.63;;;18.31;100.00
19086;BME280;9675;51.538;6.728;2023-09-19T09:23:49;100752.88;;;18.35;100.00
19086;BME280;9675;51.538;6.728;2023-09-19T09:26:17;100742.59;;;18.43;100.00
19086;BME280;9675;51.538;6.728;2023-09-19T09:28:50;100739.19;;;18.50;100.00
19086;BME280;9675;51.538;6.728;2023-09-19T09:31:25;100739.38;;;18.57;100.00
19086;BME280;9675;51.538;6.728;2023-09-19T09:33:55;100756.00;;;18.64;100.00
19086;BME280;9675;51.538;6.728;2023-09-19T09:36:34;100745.66;;;18.70;100.00
19086;BME280;9675;51.538;6.728;2023-09-19T09:39:02;100745.75;;;18.78;100.00
19086;BME280;9675;51.538;6.728;2023-09-19T09:41:42;100745.84;;;18.84;100.00
19086;BME280;9675;51.538;6.728;2023-09-19T09:44:13;100739.88;;;18.92;100.00
19086;BME280;9675;51.538;6.728;2023-09-19T09:46:45;100743.47;;;19.02;100.00
19086;BME280;9675;51.538;6.728;2023-09-19T09:49:48;100748.78;;;19.08;97.92
19086;BME280;9675;51.538;6.728;2023-09-19T09:52:20;100734.97;;;19.15;98.14
19086;BME280;9675;51.538;6.728;2023-09-19T09:55:00;100748.09;;;19.20;96.48
19086;BME280;9675;51.538;6.728;2023-09-19T09:57:31;100745.59;;;19.29;92.47
19086;BME280;9675;51.538;6.728;2023-09-19T10:00:00;100737.84;;;19.38;92.61
19086;BME280;9675;51.538;6.728;2023-09-19T10:02:43;100744.13;;;19.47;91.59
19086;BME280;9675;51.538;6.728;2023-09-19T10:05:14;100739.84;;;19.56;91.00
19086;BME280;9675;51.538;6.728;2023-09-19T10:07:48;100747.78;;;19.63;90.03
19086;BME280;9675;51.538;6.728;2023-09-19T10:10:30;100742.69;;;19.74;85.92
19086;BME280;9675;51.538;6.728;2023-09-19T10:13:06;100736.66;;;19.81;85.33
19086;BME280;9675;51.538;6.728;2023-09-19T10:15:39;100735.00;;;19.90;84.27
19086;BME280;9675;51.538;6.728;2023-09-19T10:18:12;100735.97;;;20.02;81.26
19086;BME280;9675;51.538;6.728;2023-09-19T10:20:45;100732.59;;;20.12;79.95
19086;BME280;9675;51.538;6.728;2023-09-19T10:23:13;100726.56;;;20.19;78.31
19086;BME280;9675;51.538;6.728;2023-09-19T10:25:43;100723.16;;;20.29;78.45
19086;BME280;9675;51.538;6.728;2023-09-19T10:28:14;100714.53;;;20.38;78.75
19086;BME280;9675;51.538;6.728;2023-09-19T10:30:44;100718.97;;;20.46;76.85
19086;BME280;9675;51.538;6.728;2023-09-19T10:33:16;100724.28;;;20.55;73.87
19086;BME280;9675;51.538;6.728;2023-09-19T10:35:46;100719.94;;;20.60;73.53
19086;BME280;9675;51.538;6.728;2023-09-19T10:38:18;100715.63;;;20.65;72.48
19086;BME280;9675;51.538;6.728;2023-09-19T10:40:50;100702.56;;;20.73;70.57
19086;BME280;9675;51.538;6.728;2023-09-19T10:43:20;100694.78;;;20.84;69.63
19086;BME280;9675;51.538;6.728;2023-09-19T10:45:50;100700.94;;;20.92;69.30
19086;BME280;9675;51.538;6.728;2023-09-19T10:48:21;100694.03;;;21.03;66.03
19086;BME280;9675;51.538;6.728;2023-09-19T10:50:58;100709.78;;;21.12;66.14
19086;BME280;9675;51.538;6.728;2023-09-19T10:53:41;100705.47;;;21.18;63.21
19086;BME280;9675;51.538;6.728;2023-09-19T10:56:10;100711.59;;;21.25;64.09
19086;BME280;9675;51.538;6.728;2023-09-19T10:58:43;100704.66;;;21.33;64.51
19086;BME280;9675;51.538;6.728;2023-09-19T11:01:11;100713.41;;;21.41;63.77
19086;BME280;9675;51.538;6.728;2023-09-19T11:03:42;100710.81;;;21.52;62.89
19086;BME280;9675;51.538;6.728;2023-09-19T11:06:12;100718.72;;;21.59;62.25
19086;BME280;9675;51.538;6.728;2023-09-19T11:08:54;100713.50;;;21.69;63.08
19086;BME280;9675;51.538;6.728;2023-09-19T11:11:41;100729.25;;;21.79;62.60
19086;BME280;9675;51.538;6.728;2023-09-19T11:14:44;100717.03;;;21.89;61.41
19086;BME280;9675;51.538;6.728;2023-09-19T11:17:42;100717.94;;;21.94;61.06
19086;BME280;9675;51.538;6.728;2023-09-19T11:20:23;100711.81;;;21.98;60.85
19086;BME280;9675;51.538;6.728;2023-09-19T11:23:23;100710.06;;;22.03;59.99
19086;BME280;9675;51.538;6.728;2023-09-19T11:25:54;100713.56;;;22.05;59.46
19086;BME280;9675;51.538;6.728;2023-09-19T11:28:36;100710.94;;;22.08;59.43
19086;BME280;9675;51.538;6.728;2023-09-19T11:31:50;100708.34;;;22.11;58.37
19086;BME280;9675;51.538;6.728;2023-09-19T11:34:45;100703.09;;;22.17;59.14
19086;BME280;9675;51.538;6.728;2023-09-19T11:38:00;100707.47;;;22.21;58.43
19086;BME280;9675;51.538;6.728;2023-09-19T11:40:33;100710.97;;;22.25;57.62
19086;BME280;9675;51.538;6.728;2023-09-19T11:43:31;100702.22;;;22.30;57.86
19086;BME280;9675;51.538;6.728;2023-09-19T11:46:07;100701.34;;;22.31;57.48
19086;BME280;9675;51.538;6.728;2023-09-19T11:48:38;100690.84;;;22.36;57.39
19086;BME280;9675;51.538;6.728;2023-09-19T11:51:16;100682.09;;;22.41;57.01
19086;BME280;9675;51.538;6.728;2023-09-19T11:53:50;100679.47;;;22.46;56.07
19086;BME280;9675;51.538;6.728;2023-09-19T11:56:19;100682.06;;;22.51;56.48
19086;BME280;9675;51.538;6.728;2023-09-19T11:58:50;100686.44;;;22.50;55.71
19086;BME280;9675;51.538;6.728;2023-09-19T12:01:24;100690.81;;;22.53;55.81
19086;BME280;9675;51.538;6.728;2023-09-19T12:03:57;100680.31;;;22.59;55.01
19086;BME280;9675;51.538;6.728;2023-09-19T12:06:26;100672.44;;;22.62;54.80
19086;BME280;9675;51.538;6.728;2023-09-19T12:08:56;100676.78;;;22.66;54.79
19086;BME280;9675;51.538;6.728;2023-09-19T12:11:29;100671.56;;;22.72;54.39
19086;BME280;9675;51.538;6.728;2023-09-19T12:13:59;100686.41;;;22.82;54.08
19086;BME280;9675;51.538;6.728;2023-09-19T12:16:27;100684.66;;;22.90;54.16
19086;BME280;9675;51.538;6.728;2023-09-19T12:18:57;100684.59;;;22.98;53.90
19086;BME280;9675;51.538;6.728;2023-09-19T12:21:29;100665.31;;;23.03;53.91
19086;BME280;9675;51.538;6.728;2023-09-19T12:24:12;100660.91;;;23.11;54.47
19086;BME280;9675;51.538;6.728;2023-09-19T12:26:41;100668.75;;;23.17;53.54
19086;BME280;9675;51.538;6.728;2023-09-19T12:29:16;100655.59;;;23.23;51.67
19086;BME280;9675;51.538;6.728;2023-09-19T12:31:49;100661.69;;;23.28;52.48
19086;BME280;9675;51.538;6.728;2023-09-19T12:34:20;100649.41;;;23.34;52.83
19086;BME280;9675;51.538;6.728;2023-09-19T12:36:48;100646.75;;;23.40;53.15
19086;BME280;9675;51.538;6.728;2023-09-19T12:39:26;100640.59;;;23.48;52.91
19086;BME280;9675;51.538;6.728;2023-09-19T12:41:55;100656.34;;;23.54;52.17
19086;BME280;9675;51.538;6.728;2023-09-19T12:44:23;100635.31;;;23.56;52.26
19086;BME280;9675;51.538;6.728;2023-09-19T12:46:51;100649.28;;;23.61;52.00
19086;BME280;9675;51.538;6.728;2023-09-19T12:49:20;100661.53;;;23.63;52.45
19086;BME280;9675;51.538;6.728;2023-09-19T12:51:49;100643.13;;;23.66;52.38
19086;BME280;9675;51.538;6.728;2023-09-19T12:54:22;100644.84;;;23.70;52.25
19086;BME280;9675;51.538;6.728;2023-09-19T12:56:52;100643.03;;;23.74;52.24
19086;BME280;9675;51.538;6.728;2023-09-19T12:59:30;100647.44;;;23.77;51.33
19086;BME280;9675;51.538;6.728;2023-09-19T13:02:04;100643.00;;;23.83;52.21
19086;BME280;9675;51.538;6.728;2023-09-19T13:04:33;100649.97;;;23.86;51.63
19086;BME280;9675;51.538;6.728;2023-09-19T13:07:05;100649.06;;;23.90;50.66
19086;BME280;9675;51.538;6.728;2023-09-19T13:09:34;100653.41;;;23.94;51.25
19086;BME280;9675;51.538;6.728;2023-09-19T13:12:03;100649.84;;;23.99;51.38